Terminal Aerodrome Forecast
Issued by NWS Wilmington, OH

Current Version | Previous Version | Graphics & Text | Print | Product List | Glossary On
Versions: 1 2 3 4 5 6 7 8 9 10 11 12 13 14 15 16 17 18 19 20 21 22 23 24 25 26 27
601
FTUS41 KILN 181120
TAFCVG
TAF
KCVG 181120Z 1812/1918 20015G25KT P6SM VCSH OVC035 WS020/21055KT
     FM181500 20018G30KT P6SM VCSH OVC015 WS020/22055KT
     FM182200 22018G33KT 2SM +SHRA BR VCTS OVC012CB WS020/22055KT
     FM190000 30018G36KT 4SM -SHRA BR OVC012
     FM190400 31018G32KT P6SM OVC018
     FM190800 30011G18KT P6SM OVC022=

USA.gov is the U.S. government's official web portal to all federal, state and local government web resources and services.